createdAt,value
2019-04-20T00:00:43.155Z,4.08
2019-04-20T00:04:45.683Z,4.83
2019-04-20T00:08:57.876Z,4.15
2019-04-20T00:13:08.829Z,4.53
2019-04-20T00:17:03.603Z,6.20
2019-04-20T00:21:26.895Z,5.85
2019-04-20T00:26:02.287Z,5.80
2019-04-20T00:30:06.737Z,9.15
2019-04-20T00:34:09.225Z,5.00
2019-04-20T00:38:07.803Z,4.80
2019-04-20T00:42:14.945Z,4.80
2019-04-20T00:46:26.380Z,4.85
2019-04-20T00:50:40.370Z,4.40
2019-04-20T00:54:32.594Z,5.55
2019-04-20T00:58:52.340Z,6.47
2019-04-20T01:02:54.305Z,4.00
2019-04-20T01:07:13.739Z,6.30
2019-04-20T01:11:08.104Z,4.60
2019-04-20T01:15:25.573Z,4.50
2019-04-20T01:19:20.597Z,5.33
2019-04-20T01:23:37.557Z,4.10
2019-04-20T01:27:42.470Z,5.17
2019-04-20T01:31:56.058Z,5.05
2019-04-20T01:35:56.937Z,4.45
2019-04-20T01:39:56.764Z,4.60
2019-04-20T01:43:58.626Z,4.95
2019-04-20T01:48:04.775Z,4.62
2019-04-20T01:52:19.184Z,5.03
2019-04-20T01:56:31.609Z,4.80
2019-04-20T02:00:48.064Z,5.10
2019-04-20T02:04:59.482Z,5.00
2019-04-20T02:09:06.671Z,5.50
2019-04-20T02:13:10.755Z,5.80
2019-04-20T02:17:26.042Z,4.78
2019-04-20T02:21:38.637Z,5.50
2019-04-20T02:25:29.084Z,5.65
2019-04-20T02:30:03.789Z,5.40
2019-04-20T02:34:26.128Z,5.28
2019-04-20T02:38:56.433Z,5.12
2019-04-20T03:02:55.912Z,5.10
2019-04-20T03:07:07.960Z,6.08
2019-04-20T03:11:20.942Z,5.47
2019-04-20T03:15:29.570Z,6.37
2019-04-20T03:19:23.300Z,6.12
2019-04-20T03:23:45.214Z,6.50
2019-04-20T03:27:47.568Z,6.92
2019-04-20T03:32:27.912Z,6.37
2019-04-20T03:36:19.971Z,7.22
2019-04-20T03:40:10.040Z,7.20
2019-04-20T03:44:09.033Z,7.25
2019-04-20T03:48:26.585Z,7.87
2019-04-20T03:52:43.052Z,8.53
2019-04-20T03:57:23.591Z,8.40
2019-04-20T04:02:03.254Z,9.55
2019-04-20T04:05:54.754Z,8.93
2019-04-20T04:10:08.460Z,9.45
2019-04-20T04:13:52.649Z,10.08
2019-04-20T04:18:04.402Z,9.48
2019-04-20T04:22:18.058Z,9.98
2019-04-20T04:26:27.514Z,9.38
2019-04-20T04:30:35.310Z,10.18
2019-04-20T04:34:44.451Z,10.28
2019-04-20T04:38:57.171Z,11.10
2019-04-20T04:43:02.249Z,10.35
2019-04-20T04:46:54.680Z,10.28
2019-04-20T04:51:01.266Z,10.53
2019-04-20T04:55:13.397Z,10.95
2019-04-20T04:59:08.825Z,10.70
2019-04-20T05:03:37.565Z,11.43
2019-04-20T05:07:49.590Z,11.15
2019-04-20T05:11:42.821Z,11.00
2019-04-20T05:16:00.180Z,11.78
2019-04-20T05:20:16.265Z,11.45
2019-04-20T05:24:29.165Z,11.63
2019-04-20T05:28:30.583Z,12.13
2019-04-20T05:32:35.818Z,12.03
2019-04-20T05:36:53.076Z,11.45
2019-04-20T05:41:02.081Z,11.30
2019-04-20T05:45:07.547Z,12.78
2019-04-20T05:49:23.400Z,11.95
2019-04-20T05:53:26.993Z,12.15
2019-04-20T05:57:40.076Z,12.18
2019-04-20T06:01:44.016Z,12.93
2019-04-20T06:05:52.499Z,12.15
2019-04-20T06:09:55.256Z,13.70
2019-04-20T06:14:07.052Z,13.25
2019-04-20T06:18:34.818Z,12.33
2019-04-20T06:22:48.341Z,12.50
2019-04-20T06:27:00.590Z,12.40
2019-04-20T06:30:56.868Z,12.58
2019-04-20T06:35:18.943Z,12.10
2019-04-20T06:39:20.053Z,12.63
2019-04-20T06:43:25.412Z,12.78
2019-04-20T06:47:30.747Z,13.35
2019-04-20T06:51:42.131Z,12.43
2019-04-20T06:55:57.354Z,12.28
2019-04-20T07:00:03.233Z,11.75
2019-04-20T07:04:21.158Z,11.70
2019-04-20T07:08:27.697Z,11.75
2019-04-20T07:12:18.680Z,13.48
2019-04-20T07:16:30.604Z,11.25
2019-04-20T07:21:05.330Z,11.45
2019-04-20T07:25:16.084Z,10.63
2019-04-20T07:29:13.658Z,10.15
2019-04-20T07:33:17.246Z,10.00
2019-04-20T07:37:46.686Z,11.20
2019-04-20T07:41:42.991Z,10.23
2019-04-20T07:45:35.091Z,10.03
2019-04-20T07:49:43.081Z,10.38
2019-04-20T07:53:45.298Z,10.13
2019-04-20T07:57:55.104Z,9.78
2019-04-20T08:02:24.962Z,9.93
2019-04-20T08:06:18.092Z,9.78
2019-04-20T08:10:34.356Z,10.38
2019-04-20T08:14:51.613Z,8.38
2019-04-20T08:18:55.737Z,9.13
2019-04-20T08:23:02.967Z,9.00
2019-04-20T08:26:55.178Z,9.55
2019-04-20T08:31:29.194Z,9.43
2019-04-20T08:35:46.451Z,8.50
2019-04-20T08:39:51.044Z,8.33
2019-04-20T08:43:53.939Z,8.80
2019-04-20T08:48:09.938Z,8.75
2019-04-20T08:52:12.373Z,7.87
2019-04-20T08:56:05.841Z,8.23
2019-04-20T08:59:56.086Z,8.18
2019-04-20T09:04:11.252Z,8.35
2019-04-20T09:08:16.211Z,8.13
2019-04-20T09:12:34.537Z,8.53
2019-04-20T09:16:26.966Z,8.73
2019-04-20T09:20:38.358Z,7.53
2019-04-20T09:25:01.850Z,7.45
2019-04-20T09:29:12.653Z,7.95
2019-04-20T09:33:33.595Z,7.62
2019-04-20T09:37:53.164Z,8.15
2019-04-20T09:42:00.658Z,7.78
2019-04-20T09:46:00.039Z,7.15
2019-04-20T09:50:21.166Z,6.00
2019-04-20T09:54:25.679Z,7.40
2019-04-20T09:58:26.221Z,5.95
2019-04-20T10:02:25.882Z,6.80
2019-04-20T10:06:30.704Z,5.85
2019-04-20T10:10:41.604Z,5.95
2019-04-20T10:14:40.824Z,6.10
2019-04-20T10:18:50.733Z,5.15
2019-04-20T10:22:52.249Z,5.10
2019-04-20T10:26:56.849Z,5.78
2019-04-20T10:31:02.312Z,5.80
2019-04-20T10:35:08.606Z,5.22
2019-04-20T10:39:14.345Z,5.17
2019-04-20T10:43:19.802Z,5.80
2019-04-20T10:47:25.271Z,4.87
2019-04-20T10:51:31.491Z,5.08
2019-04-20T10:55:37.642Z,5.72
2019-04-20T10:59:43.722Z,5.25
2019-04-20T11:03:50.369Z,5.42
2019-04-20T11:07:55.167Z,4.78
2019-04-20T11:11:59.864Z,5.17
2019-04-20T11:16:04.679Z,5.20
2019-04-20T11:20:09.760Z,6.67
2019-04-20T11:24:14.603Z,5.55
2019-04-20T11:28:19.926Z,5.87
2019-04-20T11:32:26.148Z,5.12
2019-04-20T11:36:31.087Z,4.90
2019-04-20T11:40:37.000Z,5.10
2019-04-20T11:44:42.917Z,5.87
2019-04-20T11:48:47.778Z,5.80
2019-04-20T11:52:53.101Z,5.37
2019-04-20T11:56:59.504Z,5.58
2019-04-20T12:01:21.678Z,5.15
2019-04-20T12:05:33.384Z,6.10
2019-04-20T12:09:31.549Z,5.60
2019-04-20T12:13:36.645Z,5.40
2019-04-20T12:17:41.793Z,5.28
2019-04-20T12:21:47.495Z,5.50
2019-04-20T12:25:52.389Z,4.92
2019-04-20T12:29:57.549Z,5.40
2019-04-20T12:34:02.550Z,5.22
2019-04-20T12:38:07.411Z,5.28
2019-04-20T12:42:13.013Z,5.35
2019-04-20T12:46:19.828Z,5.80
2019-04-20T12:50:25.589Z,5.80
2019-04-20T12:54:32.368Z,5.42
2019-04-20T12:58:37.078Z,5.95
2019-04-20T13:02:43.162Z,5.62
2019-04-20T13:06:49.016Z,5.70
2019-04-20T13:11:02.550Z,4.92
2019-04-20T13:15:32.121Z,5.47
2019-04-20T13:19:37.528Z,5.42
2019-04-20T13:23:42.738Z,5.50
2019-04-20T13:27:47.508Z,5.50
2019-04-20T13:31:54.596Z,5.70
2019-04-20T13:35:58.779Z,5.45
2019-04-20T13:40:04.927Z,5.20
2019-04-20T13:44:09.732Z,5.67
2019-04-20T13:48:15.137Z,5.00
2019-04-20T13:52:20.602Z,5.17
2019-04-20T13:56:25.915Z,5.62
2019-04-20T14:00:43.283Z,4.72
2019-04-20T14:04:57.069Z,5.65
2019-04-20T14:09:03.355Z,6.20
2019-04-20T14:13:14.922Z,4.95
2019-04-20T14:17:17.018Z,4.87
2019-04-20T14:21:22.317Z,4.37
2019-04-20T14:25:27.309Z,4.20
2019-04-20T14:29:32.743Z,4.28
2019-04-20T14:33:39.023Z,4.30
2019-04-20T14:37:43.945Z,4.80
2019-04-20T14:41:48.689Z,4.33
2019-04-20T14:45:54.508Z,5.05
2019-04-20T14:50:01.655Z,4.33
2019-04-20T14:54:05.731Z,4.70
2019-04-20T14:58:29.551Z,7.05
2019-04-20T15:02:34.287Z,5.12
2019-04-20T15:06:39.982Z,5.08
2019-04-20T15:10:44.829Z,5.03
2019-04-20T15:14:50.368Z,4.47
2019-04-20T15:19:13.752Z,4.62
2019-04-20T15:23:26.039Z,4.03
2019-04-20T15:27:30.938Z,5.05
2019-04-20T15:31:36.425Z,3.67
2019-04-20T15:35:42.018Z,3.65
2019-04-20T15:39:47.405Z,4.53
2019-04-20T15:43:53.216Z,3.98
2019-04-20T15:47:59.540Z,4.10
2019-04-20T15:52:05.921Z,3.50
2019-04-20T15:56:11.768Z,4.35
2019-04-20T16:00:18.449Z,3.58
2019-04-20T16:04:43.133Z,3.37
2019-04-20T16:08:50.333Z,4.50
2019-04-20T16:13:07.354Z,2.92
2019-04-20T16:17:04.054Z,3.47
2019-04-20T16:21:14.268Z,6.33
2019-04-20T16:25:23.370Z,6.85
2019-04-20T16:29:29.397Z,4.83
2019-04-20T16:33:34.545Z,3.75
2019-04-20T16:37:40.288Z,6.20
2019-04-20T16:41:46.487Z,4.53
2019-04-20T16:45:51.169Z,4.62
2019-04-20T16:49:56.998Z,3.60
2019-04-20T16:54:02.139Z,4.37
2019-04-20T16:58:08.149Z,4.70
2019-04-20T17:02:15.956Z,3.90
2019-04-20T17:06:20.579Z,3.90
2019-04-20T17:10:26.486Z,4.62
2019-04-20T17:14:31.787Z,5.70
2019-04-20T17:18:37.408Z,5.70
2019-04-20T17:22:44.307Z,7.55
2019-04-20T17:26:59.170Z,4.80
2019-04-20T17:31:13.556Z,12.15
2019-04-20T17:35:33.802Z,7.25
2019-04-20T17:39:31.048Z,11.88
2019-04-20T17:43:56.963Z,9.58
2019-04-20T17:48:01.888Z,9.58
2019-04-20T17:52:21.517Z,14.68
2019-04-20T17:56:00.744Z,10.00
2019-04-20T18:00:15.693Z,7.33
2019-04-20T18:04:54.922Z,6.90
2019-04-20T18:08:52.203Z,5.85
2019-04-20T18:12:44.596Z,7.97
2019-04-20T18:17:11.408Z,8.18
2019-04-20T18:21:06.463Z,6.22
2019-04-20T18:25:29.714Z,9.70
2019-04-20T18:29:36.849Z,6.40
2019-04-20T18:33:30.179Z,7.08
2019-04-20T18:37:33.274Z,4.60
2019-04-20T18:41:45.494Z,5.17
2019-04-20T18:46:10.978Z,5.62
2019-04-20T18:50:05.072Z,5.30
2019-04-20T18:54:08.566Z,6.10
2019-04-20T18:58:09.130Z,5.85
2019-04-20T19:02:20.035Z,5.05
2019-04-20T19:06:21.264Z,5.70
2019-04-20T19:10:31.598Z,5.00
2019-04-20T19:14:51.741Z,5.55
2019-04-20T19:19:20.099Z,4.90
2019-04-20T19:23:14.757Z,4.97
2019-04-20T19:27:29.118Z,6.37
2019-04-20T19:31:43.236Z,8.25
2019-04-20T19:35:42.088Z,9.90
2019-04-20T19:39:53.197Z,8.25
2019-04-20T19:44:02.530Z,8.75
2019-04-20T19:48:09.396Z,6.40
2019-04-20T19:52:34.584Z,5.50
2019-04-20T19:56:26.118Z,5.10
2019-04-20T20:00:16.533Z,5.05
2019-04-20T20:04:21.882Z,10.28
2019-04-20T20:08:31.082Z,4.25
2019-04-20T20:12:35.673Z,4.95
2019-04-20T20:16:58.864Z,4.78
2019-04-20T20:21:04.790Z,4.00
2019-04-20T20:24:54.924Z,5.87
2019-04-20T20:29:08.183Z,5.72
2019-04-20T20:33:22.128Z,4.47
2019-04-20T20:37:24.080Z,3.90
2019-04-20T20:41:28.162Z,3.90
2019-04-20T20:45:35.036Z,4.10
2019-04-20T20:50:04.048Z,3.92
2019-04-20T20:53:54.633Z,4.17
2019-04-20T20:58:01.047Z,3.60
2019-04-20T21:02:06.852Z,4.40
2019-04-20T21:06:07.444Z,8.43
2019-04-20T21:10:15.285Z,4.80
2019-04-20T21:14:22.010Z,5.87
2019-04-20T21:18:43.518Z,5.10
2019-04-20T21:22:49.188Z,3.98
2019-04-20T21:26:42.345Z,3.83
2019-04-20T21:30:48.384Z,3.75
2019-04-20T21:34:55.675Z,3.55
2019-04-20T21:39:01.518Z,3.10
2019-04-20T21:43:09.479Z,3.90
2019-04-20T21:47:15.739Z,3.80
2019-04-20T21:51:32.759Z,4.03
2019-04-20T21:55:27.942Z,3.65
2019-04-20T21:59:40.970Z,3.60
2019-04-20T22:03:40.433Z,3.62
2019-04-20T22:07:46.426Z,3.40
2019-04-20T22:11:51.921Z,3.37
2019-04-20T22:16:04.740Z,3.27
2019-04-20T22:20:18.903Z,3.22
2019-04-20T22:24:28.710Z,2.90
2019-04-20T22:28:18.146Z,3.02
2019-04-20T22:32:23.951Z,4.35
2019-04-20T22:36:34.023Z,3.55
2019-04-20T22:40:36.706Z,3.33
2019-04-20T22:44:47.979Z,3.08
2019-04-20T22:49:06.885Z,3.12
2019-04-20T22:53:18.018Z,3.70
2019-04-20T22:57:22.681Z,3.70
2019-04-20T23:01:23.346Z,3.42
2019-04-20T23:05:18.553Z,3.80
2019-04-20T23:09:24.617Z,4.40
2019-04-20T23:13:37.800Z,3.60
2019-04-20T23:17:42.149Z,4.20
2019-04-20T23:21:48.697Z,4.08
2019-04-20T23:25:51.383Z,3.62
2019-04-20T23:29:58.364Z,3.25
2019-04-20T23:34:11.240Z,3.30
2019-04-20T23:38:16.085Z,5.97
2019-04-20T23:42:21.900Z,3.60
2019-04-20T23:46:43.671Z,3.22
2019-04-20T23:51:07.896Z,2.95
2019-04-20T23:55:00.951Z,3.00
2019-04-20T23:59:02.363Z,3.10
